Time;durP1;ratioP1;P1;durP2;ratioP2;P2;SDS_P1;SDS_P2;PMS_P1;PMS_P2;Temp;Humidity;BMP_temperature;BMP_pressure;BME280_temperature;BME280_humidity;BME280_pressure;Samples;Min_cycle;Max_cycle;Signal;HPM_P1;HPM_P2
2022/06/21 00:01:00;;;;;;;5.63;2.40;;;15.80;73.30;;;;;;20964916;28;20239;-66
2022/06/21 00:11:13;;;;;;;3.83;2.20;;;15.60;73.50;;;;;;20930257;28;20545;-64
2022/06/21 00:21:18;;;;;;;2.20;2.00;;;15.40;73.80;;;;;;20951280;28;20213;-65
2022/06/21 00:31:24;;;;;;;9.30;4.03;;;15.20;74.30;;;;;;20997823;28;20667;-66
2022/06/21 00:41:57;;;;;;;4.23;2.40;;;15.20;74.70;;;;;;20998569;28;20719;-67
2022/06/21 00:52:14;;;;;;;3.83;2.50;;;15.10;75.00;;;;;;20997639;28;20260;-66
2022/06/21 01:02:34;;;;;;;2.70;2.20;;;15.00;75.60;;;;;;20996810;28;20659;-65
2022/06/21 01:12:51;;;;;;;6.77;2.40;;;15.00;75.80;;;;;;20996716;28;20270;-71
2022/06/21 01:23:14;;;;;;;3.43;2.50;;;15.00;75.90;;;;;;20995869;28;20216;-64
2022/06/21 01:33:24;;;;;;;2.47;2.03;;;14.90;76.20;;;;;;20995034;28;20236;-66
2022/06/21 01:43:28;;;;;;;3.30;2.10;;;14.80;76.30;;;;;;20995297;28;20238;-66
2022/06/21 01:53:31;;;;;;;3.23;2.30;;;14.80;76.80;;;;;;20994332;28;20267;-74
2022/06/21 02:03:35;;;;;;;3.10;2.70;;;14.80;76.80;;;;;;20994762;28;20207;-76
2022/06/21 02:13:43;;;;;;;5.40;3.20;;;14.70;77.20;;;;;;20994170;28;20238;-69
2022/06/21 02:23:51;;;;;;;2.97;2.57;;;14.60;77.40;;;;;;20947382;28;20241;-66
2022/06/21 02:33:56;;;;;;;3.30;2.63;;;14.40;77.60;;;;;;20909370;28;20306;-78
2022/06/21 02:44:10;;;;;;;8.83;2.70;;;14.30;78.00;;;;;;20920356;28;20232;-71
2022/06/21 02:54:22;;;;;;;6.13;2.70;;;14.10;78.00;;;;;;20924771;28;20241;-64
2022/06/21 03:04:47;;;;;;;3.50;2.70;;;14.00;78.40;;;;;;20923651;28;20253;-75
2022/06/21 03:14:52;;;;;;;3.57;2.80;;;13.90;78.80;;;;;;20922888;28;20724;-79
2022/06/21 03:24:57;;;;;;;5.80;2.87;;;13.70;79.20;;;;;;20922515;28;20211;-81
2022/06/21 03:35:00;;;;;;;3.70;2.60;;;13.70;79.50;;;;;;20903608;28;20245;-76
2022/06/21 03:45:09;;;;;;;3.83;2.60;;;13.80;79.50;;;;;;20903283;28;20241;-79
2022/06/21 03:55:38;;;;;;;4.70;2.47;;;13.80;79.60;;;;;;20920110;28;20296;-80
2022/06/21 04:05:51;;;;;;;3.33;2.70;;;13.80;79.60;;;;;;20920605;28;20611;-80
2022/06/21 04:16:08;;;;;;;3.80;2.70;;;13.80;79.80;;;;;;20922467;28;20626;-69
2022/06/21 04:26:35;;;;;;;3.60;2.77;;;13.80;80.00;;;;;;20918484;28;20357;-67
2022/06/21 04:36:44;;;;;;;3.83;3.23;;;14.00;80.40;;;;;;20922754;28;20262;-65
2022/06/21 04:46:48;;;;;;;4.73;2.83;;;14.10;80.60;;;;;;20944279;28;20263;-68
2022/06/21 04:57:05;;;;;;;3.70;2.93;;;14.30;81.30;;;;;;20968419;28;20679;-65
2022/06/21 05:07:17;;;;;;;5.83;3.27;;;14.60;81.30;;;;;;20995374;28;20220;-67
2022/06/21 05:17:19;;;;;;;8.07;3.50;;;14.80;81.70;;;;;;20996105;28;20248;-66
2022/06/21 05:27:44;;;;;;;6.83;3.73;;;14.90;81.60;;;;;;20995917;28;20210;-65
2022/06/21 05:37:57;;;;;;;6.40;3.87;;;15.20;81.20;;;;;;20994980;28;20326;-65
2022/06/21 05:48:08;;;;;;;5.80;3.73;;;15.40;80.80;;;;;;20994878;28;20724;-74
2022/06/21 05:58:25;;;;;;;6.23;3.97;;;15.60;80.50;;;;;;20993764;28;20232;-64
2022/06/21 06:08:31;;;;;;;8.47;4.07;;;15.80;80.30;;;;;;20992762;28;20660;-67
2022/06/21 06:19:05;;;;;;;10.57;7.37;;;16.20;79.70;;;;;;21002778;28;20247;-74
2022/06/21 06:29:26;;;;;;;10.83;4.60;;;16.50;79.10;;;;;;20999323;28;20207;-71
2022/06/21 06:39:30;;;;;;;10.03;4.40;;;16.80;78.50;;;;;;21008190;28;20243;-68
2022/06/21 06:49:37;;;;;;;9.63;3.90;;;17.10;77.50;;;;;;21006962;28;20564;-77
2022/06/21 06:59:43;;;;;;;8.73;3.73;;;17.40;76.70;;;;;;21005207;28;20237;-64
2022/06/21 07:09:50;;;;;;;9.80;7.07;;;17.70;76.00;;;;;;21004891;28;20214;-63
2022/06/21 07:19:53;;;;;;;7.53;4.10;;;18.10;75.80;;;;;;20985135;28;20232;-65
2022/06/21 07:30:03;;;;;;;9.03;4.30;;;18.40;75.30;;;;;;21002786;28;20213;-64
2022/06/21 07:40:26;;;;;;;7.30;3.63;;;18.80;74.80;;;;;;21003804;28;20652;-67
2022/06/21 07:50:33;;;;;;;12.30;3.70;;;19.10;74.20;;;;;;21001693;28;20219;-80
2022/06/21 08:11:13;;;;;;;4.67;3.17;;;19.70;71.50;;;;;;21001083;28;20211;-66
2022/06/21 08:21:20;;;;;;;7.10;2.80;;;19.80;70.70;;;;;;20999919;28;20236;-64
2022/06/21 08:31:29;;;;;;;9.07;2.83;;;20.10;68.80;;;;;;20999546;28;20214;-78
2022/06/21 08:41:55;;;;;;;6.40;3.10;;;20.30;67.30;;;;;;20974122;28;20247;-65
2022/06/21 08:52:16;;;;;;;5.97;2.70;;;20.60;65.70;;;;;;20915187;28;20284;-64
2022/06/21 09:02:47;;;;;;;3.97;2.80;;;20.70;64.10;;;;;;20913787;28;20643;-68
2022/06/21 09:12:49;;;;;;;10.10;2.20;;;21.00;62.10;;;;;;20914105;28;20235;-69
2022/06/21 09:23:06;;;;;;;8.97;2.63;;;21.10;60.20;;;;;;20914431;28;20306;-66
2022/06/21 09:33:16;;;;;;;3.70;2.20;;;21.40;59.30;;;;;;20924004;28;20754;-67
2022/06/21 09:43:36;;;;;;;3.33;1.90;;;21.60;57.70;;;;;;20951991;28;20572;-65
2022/06/21 09:54:05;;;;;;;7.80;2.10;;;21.80;56.10;;;;;;21015603;28;20588;-72
2022/06/21 10:04:31;;;;;;;7.27;2.20;;;22.00;55.00;;;;;;21021725;28;20213;-68
2022/06/21 10:14:52;;;;;;;2.97;1.90;;;22.20;54.40;;;;;;21020453;28;20242;-74
2022/06/21 10:25:14;;;;;;;3.87;1.90;;;22.40;53.40;;;;;;20984326;28;20208;-64
2022/06/21 10:35:46;;;;;;;7.13;1.93;;;22.60;53.10;;;;;;20936638;28;20239;-66
2022/06/21 10:45:57;;;;;;;4.67;2.03;;;22.80;51.50;;;;;;20938403;28;20337;-65
2022/06/21 11:07:24;;;;;;;7.77;1.90;;;23.20;50.90;;;;;;20918343;28;20212;-63
2022/06/21 11:17:37;;;;;;;3.00;1.60;;;23.30;51.00;;;;;;20935118;28;20940;-64
2022/06/21 11:27:44;;;;;;;4.33;1.80;;;23.60;50.80;;;;;;21002891;28;20211;-63
2022/06/21 11:37:57;;;;;;;8.07;2.53;;;23.70;50.10;;;;;;21003372;28;20231;-65
2022/06/21 11:48:33;;;;;;;7.77;1.50;;;23.80;49.50;;;;;;21002009;28;20239;-65
2022/06/21 11:58:42;;;;;;;11.50;2.10;;;24.10;48.80;;;;;;21001558;28;20242;-67
2022/06/21 12:08:58;;;;;;;4.40;1.50;;;24.40;48.10;;;;;;21000849;28;20211;-65
2022/06/21 12:19:10;;;;;;;3.77;1.60;;;24.70;47.30;;;;;;20998847;28;20233;-67
2022/06/21 12:29:16;;;;;;;2.80;1.60;;;24.90;46.30;;;;;;20932097;28;20211;-64
2022/06/21 12:39:27;;;;;;;2.80;1.60;;;25.00;44.60;;;;;;20915465;28;20240;-66
2022/06/21 12:50:07;;;;;;;4.53;1.57;;;25.30;43.40;;;;;;20914892;28;20208;-65
2022/06/21 13:00:20;;;;;;;3.23;1.40;;;25.40;42.50;;;;;;20913416;28;20255;-67
2022/06/21 13:10:22;;;;;;;2.83;1.70;;;25.50;41.90;;;;;;20910327;28;20234;-63
2022/06/21 13:20:33;;;;;;;3.63;1.70;;;25.50;41.70;;;;;;20911916;28;20239;-64
2022/06/21 13:30:49;;;;;;;6.07;1.60;;;25.50;41.50;;;;;;20911188;28;20204;-67
2022/06/21 13:41:02;;;;;;;7.67;2.10;;;25.70;41.40;;;;;;20911109;28;20644;-68
2022/06/21 13:51:13;;;;;;;2.80;1.73;;;25.80;41.70;;;;;;20914217;28;20213;-72
2022/06/21 14:01:21;;;;;;;3.10;1.60;;;25.90;41.40;;;;;;20911009;28;20235;-75
2022/06/21 14:11:29;;;;;;;3.00;1.60;;;26.00;41.00;;;;;;20892962;28;20254;-75
2022/06/21 14:21:34;;;;;;;2.37;1.60;;;26.10;40.70;;;;;;20893013;28;20277;-64
2022/06/21 14:32:06;;;;;;;7.60;1.63;;;26.10;40.30;;;;;;20915068;28;20656;-67
2022/06/21 14:42:27;;;;;;;3.20;1.40;;;26.10;39.90;;;;;;20932346;28;20661;-64
2022/06/21 14:53:07;;;;;;;2.53;1.60;;;26.30;39.30;;;;;;20926156;28;20215;-67
2022/06/21 15:03:16;;;;;;;3.90;1.63;;;26.40;38.70;;;;;;20922683;28;20213;-63
2022/06/21 15:13:24;;;;;;;2.50;1.50;;;26.50;38.50;;;;;;20922604;28;20224;-63
2022/06/21 15:23:44;;;;;;;3.90;1.60;;;26.80;38.80;;;;;;20921948;28;20211;-66
2022/06/21 15:34:00;;;;;;;4.67;1.40;;;26.80;37.30;;;;;;20921003;28;20243;-68
2022/06/21 15:44:42;;;;;;;2.17;1.50;;;26.70;37.50;;;;;;20920554;28;20236;-64
2022/06/21 15:54:49;;;;;;;4.82;1.60;;;26.90;37.50;;;;;;20919820;28;20243;-63
2022/06/21 16:05:22;;;;;;;3.47;1.48;;;27.90;36.60;;;;;;20919676;28;20299;-66
2022/06/21 16:15:28;;;;;;;3.38;1.42;;;28.80;35.50;;;;;;20918797;28;20235;-71
2022/06/21 16:25:33;;;;;;;2.47;1.52;;;30.40;35.00;;;;;;20917763;28;20290;-72
2022/06/21 16:35:59;;;;;;;4.53;1.40;;;29.30;34.90;;;;;;20916357;28;20232;-67
2022/06/21 16:46:14;;;;;;;3.67;1.77;;;28.30;35.40;;;;;;20922033;28;20316;-71
2022/06/21 16:56:19;;;;;;;8.73;1.70;;;27.60;36.10;;;;;;20941119;28;20227;-65
2022/06/21 17:06:39;;;;;;;3.03;1.50;;;27.20;36.70;;;;;;20957681;28;20204;-63
2022/06/21 17:16:51;;;;;;;2.60;1.53;;;27.00;36.40;;;;;;20913588;28;20231;-65
2022/06/21 17:27:20;;;;;;;4.13;1.57;;;26.90;36.50;;;;;;20980726;28;20210;-62
2022/06/21 17:37:42;;;;;;;5.55;1.52;;;26.70;37.40;;;;;;20989579;28;20456;-65
2022/06/21 17:47:50;;;;;;;3.95;1.38;;;27.50;36.10;;;;;;20993259;28;20235;-61
2022/06/21 17:58:05;;;;;;;3.73;1.50;;;27.80;35.50;;;;;;20950967;28;20262;-63
2022/06/21 18:08:31;;;;;;;3.13;1.40;;;27.20;35.60;;;;;;20912394;28;20573;-68
2022/06/21 18:18:45;;;;;;;6.67;1.60;;;26.80;35.50;;;;;;20948808;28;20468;-67
2022/06/21 18:29:09;;;;;;;5.53;1.47;;;26.90;35.30;;;;;;20966203;28;20204;-66
2022/06/21 18:39:36;;;;;;;1.50;1.30;;;26.20;35.90;;;;;;20996696;28;20771;-68
2022/06/21 18:49:42;;;;;;;5.83;1.50;;;26.00;36.40;;;;;;20925268;28;20212;-66
2022/06/21 19:00:09;;;;;;;2.30;1.57;;;25.80;36.60;;;;;;20989192;28;20235;-66
2022/06/21 19:10:53;;;;;;;3.87;1.40;;;25.60;36.60;;;;;;21002464;28;20207;-67
2022/06/21 19:21:09;;;;;;;2.80;1.40;;;25.40;37.30;;;;;;20958955;28;20241;-69
2022/06/21 19:31:43;;;;;;;5.73;2.37;;;25.10;38.40;;;;;;20996924;28;20306;-69
2022/06/21 19:42:01;;;;;;;3.50;1.70;;;24.90;39.60;;;;;;20988111;28;20292;-67
2022/06/21 19:52:19;;;;;;;4.80;1.70;;;24.60;40.20;;;;;;21006101;28;20227;-65
2022/06/21 20:02:42;;;;;;;3.53;1.67;;;24.40;40.50;;;;;;21002769;28;20230;-64
2022/06/21 20:12:57;;;;;;;1.90;1.60;;;24.20;40.80;;;;;;21001927;28;20257;-71
2022/06/21 20:23:23;;;;;;;2.33;1.60;;;23.90;41.20;;;;;;21000851;28;20313;-64
2022/06/21 20:33:37;;;;;;;5.10;1.80;;;23.60;41.20;;;;;;20998386;28;20227;-64
2022/06/21 20:43:51;;;;;;;4.03;1.70;;;23.50;41.30;;;;;;21007702;28;20234;-74
2022/06/21 20:53:58;;;;;;;5.20;2.00;;;23.30;41.60;;;;;;21048244;28;20230;-69
2022/06/21 21:04:09;;;;;;;3.40;1.70;;;23.10;44.10;;;;;;21021346;28;20744;-69
2022/06/21 21:14:20;;;;;;;6.40;2.00;;;22.80;45.80;;;;;;21008345;28;20535;-72
2022/06/21 21:24:32;;;;;;;6.13;1.53;;;23.20;46.50;;;;;;21013917;28;20331;-71
2022/06/21 21:34:48;;;;;;;2.73;1.80;;;22.40;46.50;;;;;;21043752;28;20257;-70
2022/06/21 21:44:49;;;;;;;4.27;1.80;;;22.10;46.50;;;;;;21031527;28;20242;-64
2022/06/21 21:54:52;;;;;;;4.10;1.73;;;21.80;46.90;;;;;;20991929;28;20241;-72
2022/06/21 22:05:06;;;;;;;2.67;1.90;;;21.70;47.40;;;;;;20995124;28;20550;-66
2022/06/21 22:15:32;;;;;;;6.00;1.73;;;21.40;48.10;;;;;;20988117;28;20238;-73
2022/06/21 22:25:37;;;;;;;3.77;1.87;;;21.10;48.80;;;;;;20910916;28;20245;-66
2022/06/21 22:35:40;;;;;;;2.33;1.90;;;20.70;49.60;;;;;;20911298;28;20309;-66
2022/06/21 22:45:42;;;;;;;5.57;2.30;;;20.40;50.30;;;;;;20910347;28;20737;-66
2022/06/21 22:55:44;;;;;;;5.63;2.30;;;20.20;50.90;;;;;;20912306;28;20234;-69
2022/06/21 23:05:55;;;;;;;2.77;2.00;;;20.00;51.70;;;;;;20907510;28;20212;-71
2022/06/21 23:15:59;;;;;;;4.00;2.20;;;19.90;52.10;;;;;;20923602;28;20234;-67
2022/06/21 23:26:05;;;;;;;2.10;1.70;;;19.80;52.50;;;;;;20922909;28;20205;-64
2022/06/21 23:36:12;;;;;;;2.57;1.80;;;19.70;52.70;;;;;;20922944;28;20241;-64
2022/06/21 23:46:20;;;;;;;4.37;1.97;;;19.60;53.20;;;;;;20921986;28;20286;-65
2022/06/21 23:56:23;;;;;;;3.67;1.90;;;19.50;54.00;;;;;;20921540;28;20293;-66
